createdAt,value
2022-08-22T00:01:54.519Z,13.57
2022-08-22T00:02:46.132Z,8.90
2022-08-22T00:02:59.340Z,10.93
2022-08-22T00:03:02.619Z,9.00
2022-08-22T00:03:07.846Z,12.67
2022-08-22T00:04:47.402Z,12.40
2022-08-22T00:07:50.666Z,8.83
2022-08-22T00:10:31.418Z,9.03
2022-08-22T00:13:07.200Z,7.73
2022-08-22T00:15:43.622Z,9.60
2022-08-22T00:18:26.172Z,13.20
2022-08-22T00:21:04.313Z,9.93
2022-08-22T00:23:43.634Z,11.47
2022-08-22T00:26:24.674Z,12.80
2022-08-22T00:29:06.895Z,7.00
2022-08-22T00:31:36.900Z,14.43
2022-08-22T00:34:16.987Z,10.60
2022-08-22T00:37:02.230Z,10.67
2022-08-22T00:39:36.311Z,15.00
2022-08-22T00:42:15.002Z,10.23
2022-08-22T00:45:30.710Z,14.03
2022-08-22T00:48:31.273Z,10.00
2022-08-22T00:51:27.271Z,12.37
2022-08-22T00:54:23.384Z,13.90
2022-08-22T00:57:27.198Z,11.40
2022-08-22T01:00:17.227Z,13.77
2022-08-22T01:03:01.705Z,13.43
2022-08-22T01:05:54.981Z,11.03
2022-08-22T01:08:42.153Z,8.33
2022-08-22T01:11:11.984Z,9.80
2022-08-22T01:14:05.385Z,16.47
2022-08-22T01:16:35.099Z,9.47
2022-08-22T01:19:20.738Z,12.17
2022-08-22T01:22:35.422Z,7.00
2022-08-22T01:25:26.273Z,9.17
2022-08-22T01:28:30.685Z,12.23
2022-08-22T01:31:22.821Z,13.20
2022-08-22T01:34:14.364Z,10.97
2022-08-22T01:36:52.880Z,11.33
2022-08-22T01:39:55.142Z,8.63
2022-08-22T01:42:58.793Z,11.00
2022-08-22T01:46:13.936Z,11.00
2022-08-22T01:48:53.857Z,15.33
2022-08-22T01:51:36.573Z,13.03
2022-08-22T01:54:34.531Z,10.63
2022-08-22T01:57:05.287Z,11.93
2022-08-22T01:59:42.600Z,8.67
2022-08-22T02:02:21.176Z,8.83
2022-08-22T02:05:19.097Z,15.60
2022-08-22T02:07:48.729Z,11.33
2022-08-22T02:10:37.082Z,10.07
2022-08-22T02:13:30.517Z,9.07
2022-08-22T02:16:18.762Z,12.40
2022-08-22T02:19:26.684Z,10.30
2022-08-22T02:22:19.158Z,12.27
2022-08-22T02:25:06.971Z,9.73
2022-08-22T02:27:54.194Z,10.70
2022-08-22T02:30:59.894Z,7.20
2022-08-22T02:33:38.523Z,10.97
2022-08-22T02:36:43.441Z,9.30
2022-08-22T02:39:22.253Z,7.10
2022-08-22T02:42:01.583Z,8.43
2022-08-22T02:44:36.425Z,13.03
2022-08-22T02:47:20.571Z,10.10
2022-08-22T02:50:02.229Z,15.53
2022-08-22T02:52:40.078Z,10.83
2022-08-22T02:55:13.317Z,9.77
2022-08-22T02:58:05.847Z,8.97
2022-08-22T03:00:50.879Z,7.77
2022-08-22T03:03:23.559Z,9.23
2022-08-22T03:06:01.601Z,12.93
2022-08-22T03:08:32.804Z,12.80
2022-08-22T03:11:29.914Z,12.13
2022-08-22T03:14:16.329Z,10.17
2022-08-22T03:16:54.665Z,11.40
2022-08-22T03:19:30.203Z,14.03
2022-08-22T03:22:02.915Z,20.37
2022-08-22T03:24:50.873Z,12.30
2022-08-22T03:27:50.080Z,16.03
2022-08-22T03:30:27.694Z,12.80
2022-08-22T03:33:20.180Z,15.30
2022-08-22T03:35:46.717Z,29.97
2022-08-22T03:38:29.618Z,18.40
2022-08-22T03:41:17.623Z,23.87
2022-08-22T03:44:21.400Z,22.60
2022-08-22T03:47:10.294Z,16.57
2022-08-22T03:49:59.653Z,19.27
2022-08-22T03:53:07.527Z,22.27
2022-08-22T03:56:08.789Z,20.10
2022-08-22T03:59:12.272Z,19.93
2022-08-22T04:01:56.743Z,20.90
2022-08-22T04:04:59.503Z,17.97
2022-08-22T04:08:27.522Z,21.07
2022-08-22T04:11:25.656Z,26.17
2022-08-22T04:14:25.497Z,25.50
2022-08-22T04:17:30.454Z,16.20
2022-08-22T04:20:16.818Z,21.93
2022-08-22T04:23:02.059Z,17.47
2022-08-22T04:25:36.175Z,22.97
2022-08-22T04:28:11.605Z,31.30
2022-08-22T04:30:56.845Z,27.40
2022-08-22T04:33:32.920Z,25.37
2022-08-22T04:36:29.574Z,25.47
2022-08-22T04:39:14.861Z,32.17
2022-08-22T04:42:00.690Z,31.57
2022-08-22T04:44:46.461Z,29.40
2022-08-22T04:47:36.306Z,29.73
2022-08-22T04:50:21.027Z,26.23
2022-08-22T04:53:00.270Z,31.53
2022-08-22T04:55:51.115Z,31.30
2022-08-22T04:58:48.800Z,29.33
2022-08-22T05:01:26.544Z,31.63
2022-08-22T05:03:55.876Z,28.97
2022-08-22T05:06:26.984Z,36.57
2022-08-22T05:08:55.791Z,37.77
2022-08-22T05:11:24.658Z,33.57
2022-08-22T05:14:04.034Z,29.87
2022-08-22T05:16:38.666Z,35.43
2022-08-22T05:19:27.120Z,25.23
2022-08-22T05:21:57.373Z,30.50
2022-08-22T05:24:32.486Z,37.03
2022-08-22T05:27:08.713Z,34.87
2022-08-22T05:29:40.903Z,37.83
2022-08-22T05:32:14.006Z,30.53
2022-08-22T05:34:45.266Z,38.60
2022-08-22T05:37:24.055Z,37.53
2022-08-22T05:39:54.741Z,32.67
2022-08-22T05:42:33.101Z,39.37
2022-08-22T05:45:06.697Z,34.10
2022-08-22T05:47:46.353Z,37.10
2022-08-22T05:50:15.166Z,31.87
2022-08-22T05:53:06.140Z,32.10
2022-08-22T05:55:48.054Z,26.83
2022-08-22T05:58:27.263Z,27.60
2022-08-22T06:01:08.326Z,24.20
2022-08-22T06:03:46.521Z,27.20
2022-08-22T06:06:18.085Z,27.13
2022-08-22T06:08:58.472Z,24.57
2022-08-22T06:11:33.920Z,25.60
2022-08-22T06:14:18.761Z,22.67
2022-08-22T06:17:05.360Z,14.97
2022-08-22T06:19:38.733Z,13.43
2022-08-22T06:22:06.162Z,15.67
2022-08-22T06:24:38.025Z,14.80
2022-08-22T06:27:09.982Z,13.37
2022-08-22T06:29:40.757Z,20.43
2022-08-22T06:32:14.200Z,22.90
2022-08-22T06:34:44.780Z,23.63
2022-08-22T06:37:22.848Z,19.57
2022-08-22T06:39:53.754Z,18.80
2022-08-22T06:42:24.975Z,23.57
2022-08-22T06:44:57.790Z,22.87
2022-08-22T06:47:31.207Z,20.90
2022-08-22T06:50:14.085Z,22.00
2022-08-22T06:52:59.498Z,18.03
2022-08-22T06:55:28.910Z,17.87
2022-08-22T06:58:11.865Z,17.60
2022-08-22T07:00:42.518Z,14.70
2022-08-22T07:03:21.170Z,15.53
2022-08-22T07:05:47.945Z,14.73
2022-08-22T07:08:20.361Z,19.80
2022-08-22T07:11:21.695Z,13.07
2022-08-22T07:13:57.271Z,20.60
2022-08-22T07:16:35.417Z,12.47
2022-08-22T07:19:02.594Z,15.53
2022-08-22T07:21:43.762Z,14.93
2022-08-22T07:24:16.953Z,14.57
2022-08-22T07:27:23.598Z,16.48
2022-08-22T07:30:09.989Z,13.20
2022-08-22T07:33:21.072Z,14.43
2022-08-22T07:35:53.376Z,13.27
2022-08-22T07:38:43.762Z,15.23
2022-08-22T07:41:29.606Z,12.73
2022-08-22T07:44:18.865Z,14.95
2022-08-22T07:47:00.729Z,12.55
2022-08-22T07:49:33.736Z,10.20
2022-08-22T07:52:08.224Z,14.85
2022-08-22T07:54:54.585Z,16.80
2022-08-22T07:57:32.065Z,12.45
2022-08-22T08:00:00.474Z,14.15
2022-08-22T08:02:28.658Z,14.40
2022-08-22T08:04:57.598Z,12.13
2022-08-22T08:07:27.403Z,10.45
2022-08-22T08:10:07.976Z,14.48
2022-08-22T08:12:57.938Z,11.80
2022-08-22T08:15:32.048Z,10.52
2022-08-22T08:18:06.250Z,18.67
2022-08-22T08:20:35.505Z,9.40
2022-08-22T08:23:03.916Z,9.77
2022-08-22T08:25:33.961Z,14.43
2022-08-22T08:28:19.593Z,11.10
2022-08-22T08:30:59.875Z,16.90
2022-08-22T08:33:29.103Z,11.93
2022-08-22T08:36:04.195Z,15.75
2022-08-22T08:38:54.797Z,18.35
2022-08-22T08:41:55.280Z,13.02
2022-08-22T08:44:24.280Z,15.85
2022-08-22T08:46:57.367Z,12.45
2022-08-22T08:49:47.253Z,8.52
2022-08-22T08:52:52.945Z,14.55
2022-08-22T08:55:47.347Z,15.52
2022-08-22T08:58:22.747Z,11.38
2022-08-22T09:04:02.250Z,12.20
2022-08-22T09:07:08.562Z,10.75
2022-08-22T09:09:56.363Z,17.42
2022-08-22T09:13:12.235Z,12.90
2022-08-22T09:16:13.349Z,15.95
2022-08-22T09:19:07.642Z,10.38
2022-08-22T09:22:02.092Z,14.60
2022-08-22T09:24:56.633Z,10.93
2022-08-22T09:27:30.988Z,11.30
2022-08-22T09:30:19.842Z,9.32
2022-08-22T09:33:12.560Z,6.00
2022-08-22T09:36:05.067Z,13.32
2022-08-22T09:38:50.663Z,7.72
2022-08-22T09:40:16.562Z,12.30
2022-08-22T09:41:37.423Z,7.28
2022-08-22T09:44:29.725Z,9.25
2022-08-22T09:47:24.538Z,10.48
2022-08-22T09:50:10.162Z,7.22
2022-08-22T09:53:01.468Z,8.38
2022-08-22T09:55:38.713Z,7.00
2022-08-22T09:58:29.981Z,6.82
2022-08-22T10:01:15.661Z,8.18
2022-08-22T10:03:45.337Z,8.32
2022-08-22T10:06:27.476Z,7.55
2022-08-22T10:09:16.313Z,8.27
2022-08-22T10:11:49.909Z,5.78
2022-08-22T10:14:38.373Z,7.10
2022-08-22T10:17:21.754Z,8.32
2022-08-22T10:19:57.557Z,6.18
2022-08-22T10:22:44.598Z,9.40
2022-08-22T10:25:35.229Z,8.23
2022-08-22T10:28:16.917Z,6.78
2022-08-22T10:31:17.381Z,10.65
2022-08-22T10:33:49.709Z,11.10
2022-08-22T10:36:26.732Z,7.15
2022-08-22T10:38:59.957Z,8.40
2022-08-22T10:42:00.579Z,8.63
2022-08-22T10:44:43.776Z,6.82
2022-08-22T10:47:20.694Z,8.43
2022-08-22T10:49:56.670Z,13.43
2022-08-22T10:52:27.167Z,8.48
2022-08-22T10:55:18.807Z,11.35
2022-08-22T10:58:33.026Z,7.15
2022-08-22T11:01:37.001Z,6.72
2022-08-22T11:04:05.903Z,11.70
2022-08-22T11:07:09.406Z,8.43
2022-08-22T11:09:43.727Z,9.93
2022-08-22T11:12:19.214Z,8.10
2022-08-22T11:15:14.170Z,5.72
2022-08-22T11:18:20.277Z,5.28
2022-08-22T11:21:00.674Z,7.32
2022-08-22T11:23:41.553Z,6.05
2022-08-22T11:26:35.726Z,11.32
2022-08-22T11:29:24.749Z,10.57
2022-08-22T11:32:06.563Z,10.13
2022-08-22T11:34:51.694Z,7.55
2022-08-22T11:37:45.479Z,6.20
2022-08-22T11:40:35.343Z,4.88
2022-08-22T11:43:32.795Z,7.03
2022-08-22T11:46:13.686Z,7.00
2022-08-22T11:49:08.987Z,8.20
2022-08-22T11:51:57.229Z,7.82
2022-08-22T11:54:51.694Z,5.75
2022-08-22T11:57:26.494Z,4.68
2022-08-22T12:00:02.599Z,9.65
2022-08-22T12:02:47.797Z,9.68
2022-08-22T12:05:24.371Z,11.57
2022-08-22T12:08:03.534Z,7.40
2022-08-22T12:10:34.086Z,5.38
2022-08-22T12:13:19.344Z,15.63
2022-08-22T12:16:10.787Z,5.68
2022-08-22T12:18:45.253Z,7.53
2022-08-22T12:21:39.022Z,5.85
2022-08-22T12:24:35.862Z,6.70
2022-08-22T12:27:18.432Z,5.65
2022-08-22T12:30:04.844Z,6.35
2022-08-22T12:33:09.503Z,11.80
2022-08-22T12:35:54.847Z,5.60
2022-08-22T12:38:59.070Z,8.48
2022-08-22T12:41:59.837Z,6.20
2022-08-22T12:44:46.550Z,6.63
2022-08-22T12:47:32.211Z,7.93
2022-08-22T12:50:23.644Z,5.72
2022-08-22T12:53:20.277Z,5.32
2022-08-22T12:56:14.292Z,4.38
2022-08-22T12:59:16.026Z,11.73
2022-08-22T13:01:47.745Z,7.57
2022-08-22T13:04:32.719Z,5.15
2022-08-22T13:07:29.031Z,6.90
2022-08-22T13:10:22.093Z,9.43
2022-08-22T13:12:53.628Z,6.30
2022-08-22T13:15:31.745Z,5.47
2022-08-22T13:18:18.956Z,9.80
2022-08-22T13:20:51.487Z,8.00
2022-08-22T13:23:26.219Z,3.83
2022-08-22T13:26:07.642Z,6.18
2022-08-22T13:28:41.562Z,6.90
2022-08-22T13:31:09.441Z,7.72
2022-08-22T13:33:46.935Z,6.45
2022-08-22T13:36:22.970Z,4.90
2022-08-22T13:38:56.099Z,5.82
2022-08-22T13:41:34.502Z,6.32
2022-08-22T13:44:17.017Z,7.47
2022-08-22T13:47:12.876Z,5.40
2022-08-22T13:49:37.405Z,6.18
2022-08-22T13:52:30.413Z,3.33
2022-08-22T13:55:12.632Z,5.30
2022-08-22T13:57:51.749Z,7.05
2022-08-22T14:00:29.433Z,6.80
2022-08-22T14:03:05.717Z,5.13
2022-08-22T14:06:32.724Z,4.20
2022-08-22T14:08:46.938Z,4.57
2022-08-22T14:11:48.350Z,5.22
2022-08-22T14:14:24.551Z,5.40
2022-08-22T14:16:55.139Z,7.18
2022-08-22T14:19:52.865Z,4.88
2022-08-22T14:22:31.886Z,7.15
2022-08-22T14:25:02.469Z,5.28
2022-08-22T14:27:32.867Z,5.03
2022-08-22T14:30:05.743Z,6.38
2022-08-22T14:33:02.534Z,5.80
2022-08-22T14:35:40.615Z,3.75
2022-08-22T14:38:31.797Z,5.82
2022-08-22T14:41:09.765Z,7.25
2022-08-22T14:43:51.143Z,4.55
2022-08-22T14:46:44.052Z,6.85
2022-08-22T14:49:29.270Z,4.80
2022-08-22T14:52:07.306Z,7.43
2022-08-22T14:54:36.794Z,6.60
2022-08-22T14:57:10.251Z,5.20
2022-08-22T14:59:40.165Z,4.20
2022-08-22T15:02:27.543Z,5.18
2022-08-22T15:04:55.903Z,4.00
2022-08-22T15:07:26.919Z,3.30
2022-08-22T15:10:03.399Z,7.70
2022-08-22T15:12:34.642Z,3.17
2022-08-22T15:15:27.242Z,7.72
2022-08-22T15:17:54.431Z,8.68
2022-08-22T15:20:45.239Z,3.88
2022-08-22T15:23:25.228Z,4.10
2022-08-22T15:26:04.018Z,10.40
2022-08-22T15:28:52.640Z,5.22
2022-08-22T15:31:21.317Z,4.07
2022-08-22T15:33:49.498Z,8.63
2022-08-22T15:36:25.577Z,4.75
2022-08-22T15:39:17.022Z,6.50
2022-08-22T15:41:48.858Z,7.60
2022-08-22T15:44:31.028Z,5.55
2022-08-22T15:47:10.852Z,5.35
2022-08-22T15:49:54.870Z,6.68
2022-08-22T15:52:30.590Z,4.15
2022-08-22T15:55:23.260Z,7.10
2022-08-22T15:58:05.246Z,7.53
2022-08-22T16:01:04.706Z,5.70
2022-08-22T16:04:07.666Z,7.57
2022-08-22T16:07:01.391Z,7.53
2022-08-22T16:09:48.242Z,6.80
2022-08-22T16:12:40.510Z,10.80
2022-08-22T16:15:45.868Z,6.80
2022-08-22T16:18:34.316Z,5.05
2022-08-22T16:21:13.934Z,4.43
2022-08-22T16:23:46.643Z,5.95
2022-08-22T16:26:23.537Z,8.95
2022-08-22T16:28:59.523Z,8.60
2022-08-22T16:31:56.194Z,4.90
2022-08-22T16:34:38.422Z,9.80
2022-08-22T16:37:14.616Z,7.35
2022-08-22T16:39:58.341Z,5.88
2022-08-22T16:42:51.241Z,6.38
2022-08-22T16:45:35.341Z,11.52
2022-08-22T16:48:26.523Z,4.93
2022-08-22T16:51:17.918Z,4.38
2022-08-22T16:54:08.636Z,5.82
2022-08-22T16:56:47.718Z,6.38
2022-08-22T16:59:23.457Z,6.05
2022-08-22T17:02:05.182Z,5.65
2022-08-22T17:04:53.884Z,9.35
2022-08-22T17:08:07.950Z,5.53
2022-08-22T17:10:59.122Z,7.72
2022-08-22T17:13:46.828Z,3.53
2022-08-22T17:16:35.340Z,6.00
2022-08-22T17:19:16.974Z,7.78
2022-08-22T17:21:55.705Z,10.23
2022-08-22T17:24:38.496Z,8.48
2022-08-22T17:27:17.761Z,8.55
2022-08-22T17:29:53.894Z,13.35
2022-08-22T17:32:36.499Z,10.98
2022-08-22T17:35:22.637Z,5.93
2022-08-22T17:38:09.747Z,5.65
2022-08-22T17:40:36.342Z,5.50
2022-08-22T17:43:09.714Z,7.10
2022-08-22T17:45:49.242Z,11.50
2022-08-22T17:48:24.695Z,9.80
2022-08-22T17:50:57.760Z,9.70
2022-08-22T17:53:33.147Z,10.15
2022-08-22T17:56:18.350Z,5.25
2022-08-22T17:59:09.394Z,10.40
2022-08-22T18:02:01.193Z,7.25
2022-08-22T18:04:54.170Z,8.65
2022-08-22T18:07:27.753Z,7.07
2022-08-22T18:10:24.531Z,6.35
2022-08-22T18:13:00.516Z,6.50
2022-08-22T18:15:47.140Z,9.25
2022-08-22T18:18:25.775Z,4.03
2022-08-22T18:21:10.856Z,8.73
2022-08-22T18:23:56.060Z,9.45
2022-08-22T18:26:55.128Z,9.23
2022-08-22T18:29:31.402Z,4.93
2022-08-22T18:32:12.403Z,8.45
2022-08-22T18:35:07.345Z,7.07
2022-08-22T18:37:35.424Z,6.00
2022-08-22T18:40:26.491Z,5.45
2022-08-22T18:43:15.005Z,5.90
2022-08-22T18:45:47.349Z,5.88
2022-08-22T18:48:34.114Z,4.75
2022-08-22T18:51:25.087Z,9.15
2022-08-22T18:54:14.443Z,5.47
2022-08-22T18:56:53.962Z,8.23
2022-08-22T18:59:43.629Z,5.90
2022-08-22T19:02:34.536Z,6.60
2022-08-22T19:05:18.790Z,5.97
2022-08-22T19:08:01.274Z,11.07
2022-08-22T19:10:34.840Z,11.00
2022-08-22T19:13:10.405Z,9.67
2022-08-22T19:16:04.749Z,8.43
2022-08-22T19:18:55.341Z,8.63
2022-08-22T19:21:53.578Z,7.73
2022-08-22T19:24:20.145Z,12.23
2022-08-22T19:26:51.278Z,8.80
2022-08-22T19:29:17.848Z,10.87
2022-08-22T19:32:13.122Z,11.03
2022-08-22T19:34:46.881Z,7.67
2022-08-22T19:37:32.861Z,11.90
2022-08-22T19:40:11.018Z,12.30
2022-08-22T19:42:44.046Z,11.47
2022-08-22T19:45:26.414Z,8.37
2022-08-22T19:47:58.044Z,12.30
2022-08-22T19:50:31.029Z,9.87
2022-08-22T19:53:04.807Z,8.13
2022-08-22T19:55:45.339Z,10.77
2022-08-22T19:58:30.290Z,11.73
2022-08-22T20:01:28.661Z,7.73
2022-08-22T20:04:03.962Z,12.77
2022-08-22T20:07:00.883Z,9.17
2022-08-22T20:09:46.476Z,17.57
2022-08-22T20:12:29.276Z,8.80
2022-08-22T20:14:56.843Z,5.17
2022-08-22T20:17:26.863Z,8.33
2022-08-22T20:23:03.049Z,8.97
2022-08-22T20:25:44.232Z,9.80
2022-08-22T20:28:24.976Z,7.77
2022-08-22T20:30:57.768Z,9.47
2022-08-22T20:33:33.191Z,9.77
2022-08-22T20:36:05.167Z,9.23
2022-08-22T20:38:36.971Z,10.37
2022-08-22T20:41:20.182Z,9.57
2022-08-22T20:43:52.980Z,11.67
2022-08-22T20:46:53.226Z,5.57
2022-08-22T20:49:31.463Z,12.00
2022-08-22T20:52:01.127Z,10.37
2022-08-22T20:54:33.535Z,8.67
2022-08-22T20:57:11.036Z,9.73
2022-08-22T20:59:41.724Z,10.27
2022-08-22T21:02:08.295Z,10.67
2022-08-22T21:05:00.072Z,8.33
2022-08-22T21:07:34.282Z,8.90
2022-08-22T21:10:27.684Z,10.60
2022-08-22T21:13:01.318Z,14.97
2022-08-22T21:15:37.986Z,10.03
2022-08-22T21:18:05.623Z,7.10
2022-08-22T21:20:35.982Z,8.63
2022-08-22T21:23:12.104Z,8.70
2022-08-22T21:25:58.817Z,10.03
2022-08-22T21:28:35.554Z,8.87
2022-08-22T21:31:11.648Z,11.50
2022-08-22T21:33:44.558Z,6.97
2022-08-22T21:36:14.000Z,7.27
2022-08-22T21:38:59.849Z,8.23
2022-08-22T21:41:34.057Z,8.20
2022-08-22T21:44:19.449Z,13.67
2022-08-22T21:46:46.148Z,9.43
2022-08-22T21:49:26.882Z,6.07
2022-08-22T21:51:54.122Z,8.77
2022-08-22T21:54:29.570Z,7.80
2022-08-22T21:56:57.774Z,7.63
2022-08-22T21:59:51.076Z,5.30
2022-08-22T22:02:29.905Z,7.20
2022-08-22T22:04:59.628Z,10.03
2022-08-22T22:07:27.421Z,8.93
2022-08-22T22:09:55.018Z,10.00
2022-08-22T22:12:23.366Z,12.30
2022-08-22T22:14:50.452Z,6.70
2022-08-22T22:17:18.974Z,8.00
2022-08-22T22:19:46.055Z,8.17
2022-08-22T22:22:13.805Z,8.20
2022-08-22T22:24:40.517Z,8.73
2022-08-22T22:27:07.347Z,8.53
2022-08-22T22:29:34.609Z,9.80
2022-08-22T22:32:01.619Z,10.90
2022-08-22T22:34:28.259Z,13.40
2022-08-22T22:36:55.070Z,13.77
2022-08-22T22:39:21.801Z,7.27
2022-08-22T22:41:49.110Z,15.20
2022-08-22T22:44:15.735Z,7.13
2022-08-22T22:46:42.367Z,12.83
2022-08-22T22:49:09.019Z,11.87
2022-08-22T22:51:35.821Z,10.10
2022-08-22T22:54:02.514Z,8.03
2022-08-22T22:56:29.660Z,6.40
2022-08-22T22:58:58.936Z,8.80
2022-08-22T23:01:27.826Z,10.10
2022-08-22T23:03:57.020Z,11.40
2022-08-22T23:06:25.358Z,6.57
2022-08-22T23:08:52.710Z,8.33
2022-08-22T23:11:26.553Z,9.80
2022-08-22T23:13:53.413Z,12.90
2022-08-22T23:16:25.945Z,8.60
2022-08-22T23:18:52.842Z,8.00
2022-08-22T23:21:21.763Z,10.00
2022-08-22T23:23:49.372Z,7.37
2022-08-22T23:26:16.765Z,9.13
2022-08-22T23:28:44.226Z,10.60
2022-08-22T23:31:26.754Z,8.27
2022-08-22T23:33:53.719Z,8.40
2022-08-22T23:36:22.036Z,11.63
2022-08-22T23:38:49.933Z,12.67
2022-08-22T23:41:18.605Z,10.30
2022-08-22T23:43:48.898Z,8.83
2022-08-22T23:46:16.886Z,7.07
2022-08-22T23:48:43.825Z,8.97
2022-08-22T23:51:11.908Z,6.10
2022-08-22T23:53:38.870Z,8.40
2022-08-22T23:56:19.490Z,10.53
2022-08-22T23:58:47.433Z,7.10
